sensor_id;sensor_type;location;lat;lon;timestamp;P1;P2;P0
80289;PMS7003;69592;44.804;-0.550;2023-04-24T00:00:27;2.00;0.25;0.00
80289;PMS7003;69592;44.804;-0.550;2023-04-24T00:02:52;2.50;1.00;0.75
80289;PMS7003;69592;44.804;-0.550;2023-04-24T00:05:21;1.00;1.00;0.00
80289;PMS7003;69592;44.804;-0.550;2023-04-24T00:07:47;2.00;1.00;1.00
80289;PMS7003;69592;44.804;-0.550;2023-04-24T00:10:13;0.50;0.50;0.00
80289;PMS7003;69592;44.804;-0.550;2023-04-24T00:12:38;2.50;1.00;1.00
80289;PMS7003;69592;44.804;-0.550;2023-04-24T00:15:04;1.75;1.00;0.50
80289;PMS7003;69592;44.804;-0.550;2023-04-24T00:17:30;2.50;1.00;1.00
80289;PMS7003;69592;44.804;-0.550;2023-04-24T00:19:56;2.50;1.00;0.00
80289;PMS7003;69592;44.804;-0.550;2023-04-24T00:22:25;0.75;0.75;0.50
80289;PMS7003;69592;44.804;-0.550;2023-04-24T00:24:51;3.00;2.00;1.00
80289;PMS7003;69592;44.804;-0.550;2023-04-24T00:27:16;2.50;2.00;1.00
80289;PMS7003;69592;44.804;-0.550;2023-04-24T00:29:42;2.50;1.75;0.25
80289;PMS7003;69592;44.804;-0.550;2023-04-24T00:32:07;2.00;2.00;2.00
80289;PMS7003;69592;44.804;-0.550;2023-04-24T00:34:32;1.00;1.00;0.75
80289;PMS7003;69592;44.804;-0.550;2023-04-24T00:36:58;1.25;1.00;0.75
80289;PMS7003;69592;44.804;-0.550;2023-04-24T00:39:23;1.25;1.00;1.00
80289;PMS7003;69592;44.804;-0.550;2023-04-24T00:41:48;3.00;1.00;1.00
80289;PMS7003;69592;44.804;-0.550;2023-04-24T00:44:15;1.50;1.50;1.25
80289;PMS7003;69592;44.804;-0.550;2023-04-24T00:46:41;1.00;1.00;0.75
80289;PMS7003;69592;44.804;-0.550;2023-04-24T00:49:07;1.25;1.25;0.00
80289;PMS7003;69592;44.804;-0.550;2023-04-24T00:51:32;4.00;1.25;1.00
80289;PMS7003;69592;44.804;-0.550;2023-04-24T00:53:59;1.50;1.50;1.00
80289;PMS7003;69592;44.804;-0.550;2023-04-24T00:56:25;4.00;2.50;1.50
80289;PMS7003;69592;44.804;-0.550;2023-04-24T00:58:51;2.00;1.25;1.00
80289;PMS7003;69592;44.804;-0.550;2023-04-24T01:01:18;2.00;2.00;1.00
80289;PMS7003;69592;44.804;-0.550;2023-04-24T01:03:45;1.00;1.00;1.00
80289;PMS7003;69592;44.804;-0.550;2023-04-24T01:06:11;0.75;0.75;0.25
80289;PMS7003;69592;44.804;-0.550;2023-04-24T01:08:37;0.75;0.75;0.00
80289;PMS7003;69592;44.804;-0.550;2023-04-24T01:11:04;1.75;1.75;1.00
80289;PMS7003;69592;44.804;-0.550;2023-04-24T01:13:31;2.00;1.00;1.00
80289;PMS7003;69592;44.804;-0.550;2023-04-24T01:15:57;1.00;1.00;1.00
80289;PMS7003;69592;44.804;-0.550;2023-04-24T01:18:23;2.00;0.75;0.00
80289;PMS7003;69592;44.804;-0.550;2023-04-24T01:20:48;1.50;0.50;0.00
80289;PMS7003;69592;44.804;-0.550;2023-04-24T01:23:16;1.75;0.75;0.00
80289;PMS7003;69592;44.804;-0.550;2023-04-24T01:25:42;2.50;1.75;1.00
80289;PMS7003;69592;44.804;-0.550;2023-04-24T01:28:07;1.00;1.00;1.00
80289;PMS7003;69592;44.804;-0.550;2023-04-24T01:30:33;0.75;0.75;0.75
80289;PMS7003;69592;44.804;-0.550;2023-04-24T01:32:59;1.50;1.00;1.00
80289;PMS7003;69592;44.804;-0.550;2023-04-24T01:35:24;3.75;2.00;1.00
80289;PMS7003;69592;44.804;-0.550;2023-04-24T01:37:50;0.50;0.50;0.00
80289;PMS7003;69592;44.804;-0.550;2023-04-24T01:40:15;5.00;2.00;0.75
80289;PMS7003;69592;44.804;-0.550;2023-04-24T01:42:41;1.75;1.75;1.00
80289;PMS7003;69592;44.804;-0.550;2023-04-24T01:45:07;2.00;0.75;0.75
80289;PMS7003;69592;44.804;-0.550;2023-04-24T01:47:36;2.00;2.00;1.00
80289;PMS7003;69592;44.804;-0.550;2023-04-24T01:50:02;1.25;1.00;1.00
80289;PMS7003;69592;44.804;-0.550;2023-04-24T01:52:28;2.50;1.50;1.00
80289;PMS7003;69592;44.804;-0.550;2023-04-24T01:54:56;2.25;1.00;0.50
80289;PMS7003;69592;44.804;-0.550;2023-04-24T01:57:24;2.00;2.00;1.00
80289;PMS7003;69592;44.804;-0.550;2023-04-24T01:59:50;1.00;1.00;1.00
80289;PMS7003;69592;44.804;-0.550;2023-04-24T02:02:16;2.00;2.00;1.00
80289;PMS7003;69592;44.804;-0.550;2023-04-24T02:04:41;1.00;1.00;0.00
80289;PMS7003;69592;44.804;-0.550;2023-04-24T02:07:06;5.50;2.00;1.00
80289;PMS7003;69592;44.804;-0.550;2023-04-24T02:09:32;2.50;2.00;2.00
80289;PMS7003;69592;44.804;-0.550;2023-04-24T02:11:58;2.00;2.00;1.00
80289;PMS7003;69592;44.804;-0.550;2023-04-24T02:14:23;2.50;2.50;1.75
80289;PMS7003;69592;44.804;-0.550;2023-04-24T02:16:48;1.00;0.75;0.00
80289;PMS7003;69592;44.804;-0.550;2023-04-24T02:19:14;2.00;1.50;1.00
80289;PMS7003;69592;44.804;-0.550;2023-04-24T02:21:39;1.50;1.50;1.25
80289;PMS7003;69592;44.804;-0.550;2023-04-24T02:24:05;4.25;2.25;2.00
80289;PMS7003;69592;44.804;-0.550;2023-04-24T02:26:30;1.00;1.00;1.00
80289;PMS7003;69592;44.804;-0.550;2023-04-24T02:28:56;6.00;2.50;1.50
80289;PMS7003;69592;44.804;-0.550;2023-04-24T02:31:22;6.50;1.75;1.00
80289;PMS7003;69592;44.804;-0.550;2023-04-24T02:33:47;2.75;2.75;1.00
80289;PMS7003;69592;44.804;-0.550;2023-04-24T02:36:14;1.00;1.00;1.00
80289;PMS7003;69592;44.804;-0.550;2023-04-24T02:38:39;5.75;2.00;1.00
80289;PMS7003;69592;44.804;-0.550;2023-04-24T02:41:04;1.00;1.00;1.00
80289;PMS7003;69592;44.804;-0.550;2023-04-24T02:43:31;6.00;5.50;2.75
80289;PMS7003;69592;44.804;-0.550;2023-04-24T02:45:58;3.25;3.25;2.00
80289;PMS7003;69592;44.804;-0.550;2023-04-24T02:48:23;6.25;2.25;1.50
80289;PMS7003;69592;44.804;-0.550;2023-04-24T02:50:49;1.00;1.00;1.00
80289;PMS7003;69592;44.804;-0.550;2023-04-24T02:53:15;2.00;2.00;1.50
80289;PMS7003;69592;44.804;-0.550;2023-04-24T02:55:41;2.00;2.00;1.00
80289;PMS7003;69592;44.804;-0.550;2023-04-24T02:58:06;2.00;2.00;1.00
80289;PMS7003;69592;44.804;-0.550;2023-04-24T03:00:31;6.50;5.00;3.00
80289;PMS7003;69592;44.804;-0.550;2023-04-24T03:02:57;5.25;3.00;2.00
80289;PMS7003;69592;44.804;-0.550;2023-04-24T03:05:22;5.50;3.50;2.25
80289;PMS7003;69592;44.804;-0.550;2023-04-24T03:07:47;6.50;6.50;3.00
80289;PMS7003;69592;44.804;-0.550;2023-04-24T03:10:13;5.00;5.00;3.00
80289;PMS7003;69592;44.804;-0.550;2023-04-24T03:12:38;5.00;5.00;4.00
80289;PMS7003;69592;44.804;-0.550;2023-04-24T03:15:04;5.25;2.25;2.00
80289;PMS7003;69592;44.804;-0.550;2023-04-24T03:17:30;2.75;2.75;2.00
80289;PMS7003;69592;44.804;-0.550;2023-04-24T03:19:55;3.00;3.00;2.50
80289;PMS7003;69592;44.804;-0.550;2023-04-24T03:22:21;7.75;2.25;2.00
80289;PMS7003;69592;44.804;-0.550;2023-04-24T03:24:46;4.00;4.00;3.00
80289;PMS7003;69592;44.804;-0.550;2023-04-24T03:27:12;5.00;5.00;3.00
80289;PMS7003;69592;44.804;-0.550;2023-04-24T03:29:37;12.00;7.50;5.00
80289;PMS7003;69592;44.804;-0.550;2023-04-24T03:32:02;5.00;5.00;2.75
80289;PMS7003;69592;44.804;-0.550;2023-04-24T03:34:28;5.00;5.00;3.00
80289;PMS7003;69592;44.804;-0.550;2023-04-24T03:36:53;11.50;9.00;6.00
80289;PMS7003;69592;44.804;-0.550;2023-04-24T03:39:18;6.00;6.00;4.50
80289;PMS7003;69592;44.804;-0.550;2023-04-24T03:41:44;6.50;6.50;5.00
80289;PMS7003;69592;44.804;-0.550;2023-04-24T03:44:09;7.00;5.50;5.00
80289;PMS7003;69592;44.804;-0.550;2023-04-24T03:46:34;7.00;6.00;3.00
80289;PMS7003;69592;44.804;-0.550;2023-04-24T03:49:00;5.25;5.00;5.00
80289;PMS7003;69592;44.804;-0.550;2023-04-24T03:51:25;6.00;5.00;3.00
80289;PMS7003;69592;44.804;-0.550;2023-04-24T03:53:52;6.00;6.00;4.00
80289;PMS7003;69592;44.804;-0.550;2023-04-24T03:56:18;4.00;4.00;3.00
80289;PMS7003;69592;44.804;-0.550;2023-04-24T03:58:43;6.00;5.75;4.50
80289;PMS7003;69592;44.804;-0.550;2023-04-24T04:01:09;6.75;6.75;6.00
80289;PMS7003;69592;44.804;-0.550;2023-04-24T04:03:35;8.75;7.00;6.75
80289;PMS7003;69592;44.804;-0.550;2023-04-24T04:06:01;9.50;9.50;6.00
80289;PMS7003;69592;44.804;-0.550;2023-04-24T04:08:26;8.50;8.50;6.00
80289;PMS7003;69592;44.804;-0.550;2023-04-24T04:10:51;9.50;8.50;6.00
80289;PMS7003;69592;44.804;-0.550;2023-04-24T04:13:17;6.50;6.25;5.25
80289;PMS7003;69592;44.804;-0.550;2023-04-24T04:15:42;10.50;7.00;5.50
80289;PMS7003;69592;44.804;-0.550;2023-04-24T04:18:07;7.75;6.50;5.00
80289;PMS7003;69592;44.804;-0.550;2023-04-24T04:20:33;9.75;6.25;5.50
80289;PMS7003;69592;44.804;-0.550;2023-04-24T04:22:58;8.00;8.00;6.00
80289;PMS7003;69592;44.804;-0.550;2023-04-24T04:25:24;10.00;8.00;5.00
80289;PMS7003;69592;44.804;-0.550;2023-04-24T04:27:49;9.75;7.00;5.50
80289;PMS7003;69592;44.804;-0.550;2023-04-24T04:30:16;10.75;9.50;7.00
80289;PMS7003;69592;44.804;-0.550;2023-04-24T04:32:41;9.25;9.00;6.00
80289;PMS7003;69592;44.804;-0.550;2023-04-24T04:35:09;11.75;9.50;6.25
80289;PMS7003;69592;44.804;-0.550;2023-04-24T04:37:35;10.75;9.25;6.00
80289;PMS7003;69592;44.804;-0.550;2023-04-24T04:40:01;10.00;9.75;7.25
80289;PMS7003;69592;44.804;-0.550;2023-04-24T04:42:36;9.00;7.50;5.50
80289;PMS7003;69592;44.804;-0.550;2023-04-24T04:45:05;7.00;5.00;5.00
80289;PMS7003;69592;44.804;-0.550;2023-04-24T04:47:36;9.50;9.50;7.25
80289;PMS7003;69592;44.804;-0.550;2023-04-24T04:50:02;11.75;11.00;7.00
80289;PMS7003;69592;44.804;-0.550;2023-04-24T04:52:30;9.00;9.00;6.75
80289;PMS7003;69592;44.804;-0.550;2023-04-24T04:54:56;12.75;10.00;6.25
80289;PMS7003;69592;44.804;-0.550;2023-04-24T04:57:21;9.00;7.00;5.00
80289;PMS7003;69592;44.804;-0.550;2023-04-24T04:59:46;7.75;6.50;6.00
80289;PMS7003;69592;44.804;-0.550;2023-04-24T05:02:12;7.25;7.25;5.50
80289;PMS7003;69592;44.804;-0.550;2023-04-24T05:04:37;14.00;10.00;7.00
80289;PMS7003;69592;44.804;-0.550;2023-04-24T05:07:03;9.25;7.00;6.00
80289;PMS7003;69592;44.804;-0.550;2023-04-24T05:09:29;10.75;10.75;7.25
80289;PMS7003;69592;44.804;-0.550;2023-04-24T05:11:54;10.75;10.00;7.00
80289;PMS7003;69592;44.804;-0.550;2023-04-24T05:14:21;10.25;9.25;6.50
80289;PMS7003;69592;44.804;-0.550;2023-04-24T05:16:47;12.75;11.00;9.00
80289;PMS7003;69592;44.804;-0.550;2023-04-24T05:19:12;13.25;11.75;9.50
80289;PMS7003;69592;44.804;-0.550;2023-04-24T05:21:39;10.50;10.50;9.75
80289;PMS7003;69592;44.804;-0.550;2023-04-24T05:24:05;11.75;11.00;7.75
80289;PMS7003;69592;44.804;-0.550;2023-04-24T05:26:31;14.50;11.50;9.75
80289;PMS7003;69592;44.804;-0.550;2023-04-24T05:28:56;14.00;13.50;9.50
80289;PMS7003;69592;44.804;-0.550;2023-04-24T05:31:21;10.50;10.50;9.00
80289;PMS7003;69592;44.804;-0.550;2023-04-24T05:33:47;14.75;13.25;10.00
80289;PMS7003;69592;44.804;-0.550;2023-04-24T05:36:12;14.25;12.25;9.25
80289;PMS7003;69592;44.804;-0.550;2023-04-24T05:38:38;13.50;13.50;10.00
80289;PMS7003;69592;44.804;-0.550;2023-04-24T05:41:03;10.50;10.00;5.50
80289;PMS7003;69592;44.804;-0.550;2023-04-24T05:43:29;15.75;12.25;9.50
80289;PMS7003;69592;44.804;-0.550;2023-04-24T05:45:54;11.75;11.75;9.50
80289;PMS7003;69592;44.804;-0.550;2023-04-24T05:48:20;15.00;11.75;9.50
80289;PMS7003;69592;44.804;-0.550;2023-04-24T05:50:47;13.75;13.25;9.00
80289;PMS7003;69592;44.804;-0.550;2023-04-24T05:53:13;10.00;10.00;7.00
80289;PMS7003;69592;44.804;-0.550;2023-04-24T05:55:38;13.25;11.00;7.75
80289;PMS7003;69592;44.804;-0.550;2023-04-24T05:58:04;12.25;12.25;10.00
80289;PMS7003;69592;44.804;-0.550;2023-04-24T06:00:31;14.50;14.25;10.25
80289;PMS7003;69592;44.804;-0.550;2023-04-24T06:02:58;14.25;14.25;11.00
80289;PMS7003;69592;44.804;-0.550;2023-04-24T06:05:25;15.00;14.00;10.00
80289;PMS7003;69592;44.804;-0.550;2023-04-24T06:07:50;11.75;11.75;9.75
80289;PMS7003;69592;44.804;-0.550;2023-04-24T06:10:16;20.00;15.75;11.00
80289;PMS7003;69592;44.804;-0.550;2023-04-24T06:12:41;21.50;17.00;12.50
80289;PMS7003;69592;44.804;-0.550;2023-04-24T06:15:07;13.50;11.75;10.50
80289;PMS7003;69592;44.804;-0.550;2023-04-24T06:17:33;16.00;14.00;10.00
80289;PMS7003;69592;44.804;-0.550;2023-04-24T06:19:58;12.00;11.00;9.75
80289;PMS7003;69592;44.804;-0.550;2023-04-24T06:22:23;16.25;14.25;9.25
80289;PMS7003;69592;44.804;-0.550;2023-04-24T06:24:49;16.75;16.25;10.75
80289;PMS7003;69592;44.804;-0.550;2023-04-24T06:27:14;15.50;14.00;10.50
80289;PMS7003;69592;44.804;-0.550;2023-04-24T06:29:40;12.00;12.00;10.00
80289;PMS7003;69592;44.804;-0.550;2023-04-24T06:32:05;14.50;14.50;11.25
80289;PMS7003;69592;44.804;-0.550;2023-04-24T06:34:31;11.75;10.50;8.25
80289;PMS7003;69592;44.804;-0.550;2023-04-24T06:36:57;18.00;15.00;10.00
80289;PMS7003;69592;44.804;-0.550;2023-04-24T06:39:23;15.25;15.00;9.50
80289;PMS7003;69592;44.804;-0.550;2023-04-24T06:41:48;15.25;11.50;9.50
80289;PMS7003;69592;44.804;-0.550;2023-04-24T06:44:13;12.50;10.75;8.50
80289;PMS7003;69592;44.804;-0.550;2023-04-24T06:46:39;11.25;11.25;8.25
80289;PMS7003;69592;44.804;-0.550;2023-04-24T06:49:08;12.75;12.75;10.25
80289;PMS7003;69592;44.804;-0.550;2023-04-24T06:51:40;16.25;15.25;10.25
80289;PMS7003;69592;44.804;-0.550;2023-04-24T06:54:06;19.00;15.50;10.00
80289;PMS7003;69592;44.804;-0.550;2023-04-24T06:56:31;18.25;14.75;10.00
80289;PMS7003;69592;44.804;-0.550;2023-04-24T06:58:59;11.75;10.75;8.25
80289;PMS7003;69592;44.804;-0.550;2023-04-24T07:01:24;21.25;15.25;10.00
80289;PMS7003;69592;44.804;-0.550;2023-04-24T07:03:50;15.00;13.25;11.25
80289;PMS7003;69592;44.804;-0.550;2023-04-24T07:06:15;15.00;13.25;11.00
80289;PMS7003;69592;44.804;-0.550;2023-04-24T07:08:44;12.00;10.75;7.75
80289;PMS7003;69592;44.804;-0.550;2023-04-24T07:11:09;18.50;14.50;11.00
80289;PMS7003;69592;44.804;-0.550;2023-04-24T07:13:34;14.50;12.25;7.50
80289;PMS7003;69592;44.804;-0.550;2023-04-24T07:16:00;16.50;16.50;10.50
80289;PMS7003;69592;44.804;-0.550;2023-04-24T07:18:25;13.50;11.25;9.25
80289;PMS7003;69592;44.804;-0.550;2023-04-24T07:20:51;16.25;12.25;8.25
80289;PMS7003;69592;44.804;-0.550;2023-04-24T07:23:17;12.50;12.50;8.75
80289;PMS7003;69592;44.804;-0.550;2023-04-24T07:25:42;16.50;13.50;9.50
80289;PMS7003;69592;44.804;-0.550;2023-04-24T07:28:08;11.75;11.25;8.00
80289;PMS7003;69592;44.804;-0.550;2023-04-24T07:30:33;12.00;12.00;7.00
80289;PMS7003;69592;44.804;-0.550;2023-04-24T07:32:59;17.00;11.75;9.25
80289;PMS7003;69592;44.804;-0.550;2023-04-24T07:35:25;13.00;13.00;9.25
80289;PMS7003;69592;44.804;-0.550;2023-04-24T07:37:51;12.00;12.00;8.00
80289;PMS7003;69592;44.804;-0.550;2023-04-24T07:40:18;11.75;11.50;7.75
80289;PMS7003;69592;44.804;-0.550;2023-04-24T07:42:45;11.75;8.75;8.00
80289;PMS7003;69592;44.804;-0.550;2023-04-24T07:45:13;9.00;9.00;7.50
80289;PMS7003;69592;44.804;-0.550;2023-04-24T07:47:39;9.00;9.00;7.00
80289;PMS7003;69592;44.804;-0.550;2023-04-24T07:50:05;8.00;8.00;6.00
80289;PMS7003;69592;44.804;-0.550;2023-04-24T07:52:30;4.00;4.00;3.00
80289;PMS7003;69592;44.804;-0.550;2023-04-24T07:54:56;9.50;8.00;6.00
80289;PMS7003;69592;44.804;-0.550;2023-04-24T07:57:25;6.25;6.25;4.00
80289;PMS7003;69592;44.804;-0.550;2023-04-24T07:59:50;8.00;7.00;6.00
80289;PMS7003;69592;44.804;-0.550;2023-04-24T08:02:16;9.25;8.00;7.00
80289;PMS7003;69592;44.804;-0.550;2023-04-24T08:04:42;7.25;7.25;6.00
80289;PMS7003;69592;44.804;-0.550;2023-04-24T08:07:07;6.25;6.25;4.00
80289;PMS7003;69592;44.804;-0.550;2023-04-24T08:09:33;6.00;4.00;3.50
80289;PMS7003;69592;44.804;-0.550;2023-04-24T08:11:58;4.00;4.00;3.00
80289;PMS7003;69592;44.804;-0.550;2023-04-24T08:14:24;8.25;8.25;4.50
80289;PMS7003;69592;44.804;-0.550;2023-04-24T08:16:50;7.50;6.50;4.00
80289;PMS7003;69592;44.804;-0.550;2023-04-24T08:19:15;6.25;6.25;4.00
80289;PMS7003;69592;44.804;-0.550;2023-04-24T08:21:40;10.50;6.25;4.00
80289;PMS7003;69592;44.804;-0.550;2023-04-24T08:24:06;8.00;7.25;4.00
80289;PMS7003;69592;44.804;-0.550;2023-04-24T08:26:33;12.00;7.50;6.00
80289;PMS7003;69592;44.804;-0.550;2023-04-24T08:28:58;6.00;6.00;4.00
80289;PMS7003;69592;44.804;-0.550;2023-04-24T08:31:23;6.25;6.25;4.50
80289;PMS7003;69592;44.804;-0.550;2023-04-24T08:33:50;6.00;4.00;3.25
80289;PMS7003;69592;44.804;-0.550;2023-04-24T08:36:15;6.75;6.00;4.00
80289;PMS7003;69592;44.804;-0.550;2023-04-24T08:38:41;7.00;5.00;4.00
80289;PMS7003;69592;44.804;-0.550;2023-04-24T08:41:07;6.25;4.00;3.00
80289;PMS7003;69592;44.804;-0.550;2023-04-24T08:43:32;5.25;5.00;4.25
80289;PMS7003;69592;44.804;-0.550;2023-04-24T08:46:01;7.00;7.00;4.50
80289;PMS7003;69592;44.804;-0.550;2023-04-24T08:48:28;5.50;5.25;4.00
80289;PMS7003;69592;44.804;-0.550;2023-04-24T08:50:53;8.25;6.75;4.50
80289;PMS7003;69592;44.804;-0.550;2023-04-24T08:53:19;4.00;4.00;3.00
80289;PMS7003;69592;44.804;-0.550;2023-04-24T08:55:46;7.00;5.00;4.00
80289;PMS7003;69592;44.804;-0.550;2023-04-24T08:58:13;8.00;7.00;4.00
80289;PMS7003;69592;44.804;-0.550;2023-04-24T09:00:40;7.00;5.75;4.00
80289;PMS7003;69592;44.804;-0.550;2023-04-24T09:03:11;5.25;5.25;4.00
80289;PMS7003;69592;44.804;-0.550;2023-04-24T09:05:46;6.75;6.50;4.00
80289;PMS7003;69592;44.804;-0.550;2023-04-24T09:08:13;3.50;3.50;2.25
80289;PMS7003;69592;44.804;-0.550;2023-04-24T09:10:39;9.00;8.75;7.00
80289;PMS7003;69592;44.804;-0.550;2023-04-24T09:13:05;6.50;5.25;4.00
80289;PMS7003;69592;44.804;-0.550;2023-04-24T09:15:34;6.50;5.25;4.00
80289;PMS7003;69592;44.804;-0.550;2023-04-24T09:17:59;7.25;5.25;3.75
80289;PMS7003;69592;44.804;-0.550;2023-04-24T09:20:26;7.00;7.00;3.75
80289;PMS7003;69592;44.804;-0.550;2023-04-24T09:22:53;10.00;9.00;6.75
80289;PMS7003;69592;44.804;-0.550;2023-04-24T09:25:20;4.00;4.00;3.00
80289;PMS7003;69592;44.804;-0.550;2023-04-24T09:27:46;6.50;6.50;5.00
80289;PMS7003;69592;44.804;-0.550;2023-04-24T09:30:12;4.00;4.00;3.33
80289;PMS7003;69592;44.804;-0.550;2023-04-24T09:32:38;7.00;5.00;4.00
80289;PMS7003;69592;44.804;-0.550;2023-04-24T09:37:40;12.67;9.67;5.00
80289;PMS7003;69592;44.804;-0.550;2023-04-24T09:42:43;9.00;6.33;4.33
80289;PMS7003;69592;44.804;-0.550;2023-04-24T09:45:10;5.00;4.67;4.00
80289;PMS7003;69592;44.804;-0.550;2023-04-24T09:47:37;5.67;5.00;3.00
80289;PMS7003;69592;44.804;-0.550;2023-04-24T09:50:10;5.00;5.00;3.33
80289;PMS7003;69592;44.804;-0.550;2023-04-24T09:52:48;6.67;5.00;4.00
80289;PMS7003;69592;44.804;-0.550;2023-04-24T09:55:42;4.33;4.33;4.00
80289;PMS7003;69592;44.804;-0.550;2023-04-24T09:58:11;5.00;5.00;4.00
80289;PMS7003;69592;44.804;-0.550;2023-04-24T10:00:36;6.00;5.00;4.00
80289;PMS7003;69592;44.804;-0.550;2023-04-24T10:03:02;4.67;4.00;4.00
80289;PMS7003;69592;44.804;-0.550;2023-04-24T10:05:34;8.33;6.00;4.67
80289;PMS7003;69592;44.804;-0.550;2023-04-24T10:08:10;7.33;4.33;3.33
80289;PMS7003;69592;44.804;-0.550;2023-04-24T10:10:42;5.33;4.00;4.00
80289;PMS7003;69592;44.804;-0.550;2023-04-24T10:13:11;4.33;4.00;3.00
80289;PMS7003;69592;44.804;-0.550;2023-04-24T10:15:39;8.33;5.33;4.00
80289;PMS7003;69592;44.804;-0.550;2023-04-24T10:18:06;6.67;6.33;4.00
80289;PMS7003;69592;44.804;-0.550;2023-04-24T10:20:37;4.00;4.00;3.00
80289;PMS7003;69592;44.804;-0.550;2023-04-24T10:23:04;5.33;5.33;3.00
80289;PMS7003;69592;44.804;-0.550;2023-04-24T10:25:31;9.00;9.00;7.00
80289;PMS7003;69592;44.804;-0.550;2023-04-24T10:27:58;4.00;4.00;4.00
80289;PMS7003;69592;44.804;-0.550;2023-04-24T10:30:25;6.33;6.33;5.00
80289;PMS7003;69592;44.804;-0.550;2023-04-24T10:32:52;9.33;6.33;4.33
80289;PMS7003;69592;44.804;-0.550;2023-04-24T10:35:18;4.00;4.00;3.00
80289;PMS7003;69592;44.804;-0.550;2023-04-24T10:37:51;8.33;5.00;4.00
80289;PMS7003;69592;44.804;-0.550;2023-04-24T10:40:25;5.00;5.00;4.67
80289;PMS7003;69592;44.804;-0.550;2023-04-24T10:42:52;5.00;5.00;3.67
80289;PMS7003;69592;44.804;-0.550;2023-04-24T10:45:19;4.00;4.00;3.33
80289;PMS7003;69592;44.804;-0.550;2023-04-24T10:47:59;3.33;3.33;2.00
80289;PMS7003;69592;44.804;-0.550;2023-04-24T10:50:27;4.67;4.67;4.00
80289;PMS7003;69592;44.804;-0.550;2023-04-24T10:53:04;5.33;4.00;3.00
80289;PMS7003;69592;44.804;-0.550;2023-04-24T10:56:19;3.67;3.67;3.00
80289;PMS7003;69592;44.804;-0.550;2023-04-24T11:01:02;4.67;4.67;3.67
80289;PMS7003;69592;44.804;-0.550;2023-04-24T11:03:31;5.00;4.67;3.67
80289;PMS7003;69592;44.804;-0.550;2023-04-24T11:05:59;4.00;4.00;3.00
80289;PMS7003;69592;44.804;-0.550;2023-04-24T11:08:43;4.00;4.00;3.33
80289;PMS7003;69592;44.804;-0.550;2023-04-24T11:11:12;5.67;5.00;4.00
80289;PMS7003;69592;44.804;-0.550;2023-04-24T11:16:27;3.67;3.67;3.00
80289;PMS7003;69592;44.804;-0.550;2023-04-24T11:21:39;3.00;3.00;3.00
80289;PMS7003;69592;44.804;-0.550;2023-04-24T11:24:29;5.00;4.00;3.00
80289;PMS7003;69592;44.804;-0.550;2023-04-24T11:34:53;4.33;4.00;3.00
80289;PMS7003;69592;44.804;-0.550;2023-04-24T11:37:34;3.00;3.00;2.00
80289;PMS7003;69592;44.804;-0.550;2023-04-24T11:40:07;5.67;5.00;3.33
80289;PMS7003;69592;44.804;-0.550;2023-04-24T11:42:36;5.00;3.00;2.00
80289;PMS7003;69592;44.804;-0.550;2023-04-24T11:45:08;4.00;4.00;4.00
80289;PMS7003;69592;44.804;-0.550;2023-04-24T11:47:38;4.67;4.67;4.00
80289;PMS7003;69592;44.804;-0.550;2023-04-24T11:50:06;3.00;3.00;2.67
80289;PMS7003;69592;44.804;-0.550;2023-04-24T11:52:39;7.00;5.00;4.00
80289;PMS7003;69592;44.804;-0.550;2023-04-24T11:58:20;5.00;4.00;3.67
80289;PMS7003;69592;44.804;-0.550;2023-04-24T12:00:54;5.00;5.00;3.00
80289;PMS7003;69592;44.804;-0.550;2023-04-24T12:03:47;4.33;4.33;3.67
80289;PMS7003;69592;44.804;-0.550;2023-04-24T12:06:24;4.00;4.00;3.00
80289;PMS7003;69592;44.804;-0.550;2023-04-24T12:08:53;4.00;3.00;3.00
80289;PMS7003;69592;44.804;-0.550;2023-04-24T12:11:22;7.00;5.00;3.33
80289;PMS7003;69592;44.804;-0.550;2023-04-24T12:13:48;5.67;4.67;3.00
80289;PMS7003;69592;44.804;-0.550;2023-04-24T12:16:14;3.67;3.00;3.00
80289;PMS7003;69592;44.804;-0.550;2023-04-24T12:18:43;4.00;4.00;3.67
80289;PMS7003;69592;44.804;-0.550;2023-04-24T12:21:19;3.00;3.00;2.67
80289;PMS7003;69592;44.804;-0.550;2023-04-24T12:23:50;5.00;5.00;4.00
80289;PMS7003;69592;44.804;-0.550;2023-04-24T12:26:21;5.67;5.67;5.67
80289;PMS7003;69592;44.804;-0.550;2023-04-24T12:28:48;5.00;5.00;3.00
80289;PMS7003;69592;44.804;-0.550;2023-04-24T12:31:16;5.00;5.00;4.00
80289;PMS7003;69592;44.804;-0.550;2023-04-24T12:33:42;5.00;4.00;3.00
80289;PMS7003;69592;44.804;-0.550;2023-04-24T12:36:16;4.67;4.00;3.00
80289;PMS7003;69592;44.804;-0.550;2023-04-24T12:38:44;4.00;3.33;3.00
80289;PMS7003;69592;44.804;-0.550;2023-04-24T12:41:13;3.33;3.33;2.67
80289;PMS7003;69592;44.804;-0.550;2023-04-24T12:43:40;4.00;4.00;4.00
80289;PMS7003;69592;44.804;-0.550;2023-04-24T12:46:24;5.00;3.00;2.33
80289;PMS7003;69592;44.804;-0.550;2023-04-24T12:48:50;6.00;4.00;3.00
80289;PMS7003;69592;44.804;-0.550;2023-04-24T12:51:15;5.00;4.00;3.00
80289;PMS7003;69592;44.804;-0.550;2023-04-24T12:53:41;2.67;2.67;2.00
80289;PMS7003;69592;44.804;-0.550;2023-04-24T12:56:06;4.00;3.67;3.33
80289;PMS7003;69592;44.804;-0.550;2023-04-24T12:58:32;5.00;4.00;3.00
80289;PMS7003;69592;44.804;-0.550;2023-04-24T13:00:57;3.33;3.00;3.00
80289;PMS7003;69592;44.804;-0.550;2023-04-24T13:03:22;4.00;3.33;3.33
80289;PMS7003;69592;44.804;-0.550;2023-04-24T13:05:49;4.00;4.00;3.00
80289;PMS7003;69592;44.804;-0.550;2023-04-24T13:08:14;2.00;2.00;2.00
80289;PMS7003;69592;44.804;-0.550;2023-04-24T13:10:39;2.33;2.33;2.00
80289;PMS7003;69592;44.804;-0.550;2023-04-24T13:13:05;2.00;2.00;2.00
80289;PMS7003;69592;44.804;-0.550;2023-04-24T13:15:31;5.00;5.00;3.67
80289;PMS7003;69592;44.804;-0.550;2023-04-24T13:17:56;3.00;3.00;3.00
80289;PMS7003;69592;44.804;-0.550;2023-04-24T13:20:22;3.00;3.00;3.00
80289;PMS7003;69592;44.804;-0.550;2023-04-24T13:22:47;4.00;4.00;3.33
80289;PMS7003;69592;44.804;-0.550;2023-04-24T13:25:15;4.00;4.00;3.00
80289;PMS7003;69592;44.804;-0.550;2023-04-24T13:27:41;3.00;3.00;3.00
80289;PMS7003;69592;44.804;-0.550;2023-04-24T13:30:10;2.67;2.00;2.00
80289;PMS7003;69592;44.804;-0.550;2023-04-24T13:32:36;5.33;3.67;3.00
80289;PMS7003;69592;44.804;-0.550;2023-04-24T13:35:01;2.67;2.67;2.33
80289;PMS7003;69592;44.804;-0.550;2023-04-24T13:37:27;3.33;3.33;3.00
80289;PMS7003;69592;44.804;-0.550;2023-04-24T13:39:52;3.33;2.67;2.33
80289;PMS7003;69592;44.804;-0.550;2023-04-24T13:42:19;3.00;3.00;2.00
80289;PMS7003;69592;44.804;-0.550;2023-04-24T13:44:48;3.00;3.00;2.33
80289;PMS7003;69592;44.804;-0.550;2023-04-24T13:47:16;2.00;2.00;2.00
80289;PMS7003;69592;44.804;-0.550;2023-04-24T13:49:41;2.00;2.00;1.67
80289;PMS7003;69592;44.804;-0.550;2023-04-24T13:52:07;1.00;1.00;1.00
80289;PMS7003;69592;44.804;-0.550;2023-04-24T13:54:32;2.00;2.00;1.00
80289;PMS7003;69592;44.804;-0.550;2023-04-24T13:56:58;2.00;2.00;1.00
80289;PMS7003;69592;44.804;-0.550;2023-04-24T13:59:24;1.00;1.00;1.00
80289;PMS7003;69592;44.804;-0.550;2023-04-24T14:01:49;1.00;1.00;1.00
80289;PMS7003;69592;44.804;-0.550;2023-04-24T14:04:15;2.00;2.00;2.00
80289;PMS7003;69592;44.804;-0.550;2023-04-24T14:06:40;3.67;1.00;1.00
80289;PMS7003;69592;44.804;-0.550;2023-04-24T14:09:06;3.00;3.00;2.00
80289;PMS7003;69592;44.804;-0.550;2023-04-24T14:11:33;2.00;2.00;1.33
80289;PMS7003;69592;44.804;-0.550;2023-04-24T14:13:59;1.67;1.00;1.00
80289;PMS7003;69592;44.804;-0.550;2023-04-24T14:16:24;2.00;2.00;2.00
80289;PMS7003;69592;44.804;-0.550;2023-04-24T14:18:50;3.00;2.00;1.00
80289;PMS7003;69592;44.804;-0.550;2023-04-24T14:21:15;1.67;1.67;1.00
80289;PMS7003;69592;44.804;-0.550;2023-04-24T14:23:41;1.00;1.00;1.00
80289;PMS7003;69592;44.804;-0.550;2023-04-24T14:26:07;0.67;0.67;0.00